Login to view products.
 
Saturday, May 28, 2022 (11:17 UTC)
Al Bateen Executive Airport
ICAO: OMAD
IATA: AZI
  • METAR OMAD 281100Z 33009KT 290V350 CAVOK 36/16 Q1002 NOSIG=
  • TAF OMAD 281100Z 2812/2918 32012KT 8000 NSC BECMG 2822/2900 22005KT BECMG 2902/2904 30010KT=
11-- D:\Input Parser\Destinations\Final\11\OMAD_TAF.txt-- 28/05/2022-- 28/05/2022-- 3
Last Updated:
Wind Dir/Speed:
Temperature:
Rel. Humidity:
Pressure:
Visibility: